Tremembe, Brazil
Current Conditions -  °F | °C
As of 8:00 PM on Friday 19 Dec 2014 (Local Time) from SBGW Reporting Station
Thunderstorm Thunderstorm  
Wind Chill: 70°   Ceiling: 10000
Heat Index: 70°   Visibility: 5mi
Dew Point: 66°   Wind: 5mph
Humidity: 88%   Direction: 100°E
Pressure: 29.88"   Gusts: NA
Location:  22.96°S, 45.55°W
Report Text: SBGW 192200Z 10004KT 060V180 8000 2500N TS VCSH FEW004 SCT010 FEW025CB BKN100 21/19 Q1012
Loading
Personal Weather Stations






























Interactive Weather Map New forecast layout! Learn more

10-Day Weather Forecast

Advertisements
Track Severe Weather on mobile